Terminal Aerodrome Forecast
Issued by NWS

Home | Current Version | Previous Version | Text Only | Print | Product List | Glossary Off
Versions: 1 2 3 4 5 6 7 8 9 10 11 12 13 14 15

000
FTUS43 KMPX 170500
TAFRWF
TAF
KRWF 170520Z 1706/1806 30008KT P6SM SCT015
      TEMPO 1708/1712 BKN015
     FM171800 35006KT P6SM SCT250
     FM180300 32002KT P6SM SCT250=

USA.gov is the U.S. government's official web portal to all federal, state and local government web resources and services.